Terminal Aerodrome Forecast
Issued by NWS North Platte, NE

Home | Current Version | Previous Version | Text Only | Print | Product List | Glossary On
Versions: 1 2 3 4 5 6 7 8 9 10 11 12 13 14 15 16 17 18 19 20
000
FTUS43 KLBF 201006 AAA
TAFLBF
TAF AMD
KLBF 201006Z 2010/2106 02009KT P6SM VCSH OVC035
     FM201500 36006KT P6SM SCT025 OVC050
     FM210300 09004KT P6SM OVC100=

USA.gov is the U.S. government's official web portal to all federal, state and local government web resources and services.